sensor_id;sensor_type;location;lat;lon;timestamp;P1;durP1;ratioP1;P2;durP2;ratioP2
73661;SDS011;61956;52.540;13.382;2023-06-22T00:01:27;6.43;;;2.03;;
73661;SDS011;61956;52.540;13.382;2023-06-22T00:03:56;3.85;;;1.73;;
73661;SDS011;61956;52.540;13.382;2023-06-22T00:06:26;4.45;;;1.95;;
73661;SDS011;61956;52.540;13.382;2023-06-22T00:08:55;5.30;;;1.95;;
73661;SDS011;61956;52.540;13.382;2023-06-22T00:11:24;5.00;;;1.97;;
73661;SDS011;61956;52.540;13.382;2023-06-22T00:13:55;5.97;;;2.10;;
73661;SDS011;61956;52.540;13.382;2023-06-22T00:16:25;4.35;;;2.17;;
73661;SDS011;61956;52.540;13.382;2023-06-22T00:18:54;4.53;;;2.30;;
73661;SDS011;61956;52.540;13.382;2023-06-22T00:21:25;6.20;;;3.53;;
73661;SDS011;61956;52.540;13.382;2023-06-22T00:23:55;5.47;;;1.60;;
73661;SDS011;61956;52.540;13.382;2023-06-22T00:26:24;5.82;;;2.65;;
73661;SDS011;61956;52.540;13.382;2023-06-22T00:28:56;3.58;;;1.25;;
73661;SDS011;61956;52.540;13.382;2023-06-22T00:31:25;4.57;;;2.05;;
73661;SDS011;61956;52.540;13.382;2023-06-22T00:33:54;6.63;;;1.95;;
73661;SDS011;61956;52.540;13.382;2023-06-22T00:36:23;11.27;;;2.70;;
73661;SDS011;61956;52.540;13.382;2023-06-22T00:38:52;4.03;;;2.03;;
73661;SDS011;61956;52.540;13.382;2023-06-22T00:41:23;6.57;;;2.67;;
73661;SDS011;61956;52.540;13.382;2023-06-22T00:43:56;6.35;;;2.30;;
73661;SDS011;61956;52.540;13.382;2023-06-22T00:46:25;3.90;;;1.90;;
73661;SDS011;61956;52.540;13.382;2023-06-22T00:48:54;4.70;;;1.30;;
73661;SDS011;61956;52.540;13.382;2023-06-22T00:51:24;3.97;;;1.75;;
73661;SDS011;61956;52.540;13.382;2023-06-22T00:53:53;4.47;;;1.77;;
73661;SDS011;61956;52.540;13.382;2023-06-22T00:56:23;6.55;;;2.55;;
73661;SDS011;61956;52.540;13.382;2023-06-22T00:58:58;5.20;;;2.22;;
73661;SDS011;61956;52.540;13.382;2023-06-22T01:01:29;5.10;;;2.57;;
73661;SDS011;61956;52.540;13.382;2023-06-22T01:03:59;10.05;;;2.30;;
73661;SDS011;61956;52.540;13.382;2023-06-22T01:06:31;3.95;;;1.35;;
73661;SDS011;61956;52.540;13.382;2023-06-22T01:09:11;4.10;;;1.48;;
73661;SDS011;61956;52.540;13.382;2023-06-22T01:11:52;3.10;;;0.95;;
73661;SDS011;61956;52.540;13.382;2023-06-22T01:14:30;4.93;;;2.00;;
73661;SDS011;61956;52.540;13.382;2023-06-22T01:17:10;6.00;;;2.83;;
73661;SDS011;61956;52.540;13.382;2023-06-22T01:19:44;5.25;;;2.25;;
73661;SDS011;61956;52.540;13.382;2023-06-22T01:22:20;7.18;;;2.83;;
73661;SDS011;61956;52.540;13.382;2023-06-22T01:24:57;4.57;;;2.33;;
73661;SDS011;61956;52.540;13.382;2023-06-22T01:27:40;3.23;;;1.47;;
73661;SDS011;61956;52.540;13.382;2023-06-22T01:30:29;5.30;;;2.08;;
73661;SDS011;61956;52.540;13.382;2023-06-22T01:33:03;3.75;;;1.55;;
73661;SDS011;61956;52.540;13.382;2023-06-22T01:35:34;5.82;;;2.60;;
73661;SDS011;61956;52.540;13.382;2023-06-22T01:38:04;4.57;;;1.52;;
73661;SDS011;61956;52.540;13.382;2023-06-22T01:40:35;3.77;;;1.47;;
73661;SDS011;61956;52.540;13.382;2023-06-22T01:43:06;5.30;;;2.78;;
73661;SDS011;61956;52.540;13.382;2023-06-22T01:45:38;3.83;;;1.80;;
73661;SDS011;61956;52.540;13.382;2023-06-22T01:48:08;4.25;;;1.67;;
73661;SDS011;61956;52.540;13.382;2023-06-22T01:50:38;5.00;;;1.70;;
73661;SDS011;61956;52.540;13.382;2023-06-22T01:53:07;4.20;;;1.90;;
73661;SDS011;61956;52.540;13.382;2023-06-22T01:55:37;5.13;;;1.80;;
73661;SDS011;61956;52.540;13.382;2023-06-22T01:58:06;4.70;;;2.28;;
73661;SDS011;61956;52.540;13.382;2023-06-22T02:00:38;4.05;;;1.88;;
73661;SDS011;61956;52.540;13.382;2023-06-22T02:03:13;4.38;;;1.73;;
73661;SDS011;61956;52.540;13.382;2023-06-22T02:05:48;4.73;;;1.50;;
73661;SDS011;61956;52.540;13.382;2023-06-22T02:08:22;5.10;;;1.80;;
73661;SDS011;61956;52.540;13.382;2023-06-22T02:10:58;5.72;;;2.13;;
73661;SDS011;61956;52.540;13.382;2023-06-22T02:13:30;6.07;;;2.10;;
73661;SDS011;61956;52.540;13.382;2023-06-22T02:16:04;3.35;;;1.25;;
73661;SDS011;61956;52.540;13.382;2023-06-22T02:18:33;5.03;;;1.97;;
73661;SDS011;61956;52.540;13.382;2023-06-22T02:21:03;6.95;;;3.40;;
73661;SDS011;61956;52.540;13.382;2023-06-22T02:23:32;5.82;;;2.40;;
73661;SDS011;61956;52.540;13.382;2023-06-22T02:26:02;6.20;;;2.25;;
73661;SDS011;61956;52.540;13.382;2023-06-22T02:28:31;9.85;;;3.13;;
73661;SDS011;61956;52.540;13.382;2023-06-22T02:31:01;3.93;;;2.00;;
73661;SDS011;61956;52.540;13.382;2023-06-22T02:33:32;4.57;;;2.28;;
73661;SDS011;61956;52.540;13.382;2023-06-22T02:36:01;8.57;;;1.60;;
73661;SDS011;61956;52.540;13.382;2023-06-22T02:38:34;5.35;;;2.33;;
73661;SDS011;61956;52.540;13.382;2023-06-22T02:41:04;7.38;;;2.58;;
73661;SDS011;61956;52.540;13.382;2023-06-22T02:43:38;6.30;;;2.03;;
73661;SDS011;61956;52.540;13.382;2023-06-22T02:46:10;4.82;;;2.05;;
73661;SDS011;61956;52.540;13.382;2023-06-22T02:48:41;5.35;;;2.58;;
73661;SDS011;61956;52.540;13.382;2023-06-22T02:51:10;6.47;;;2.90;;
73661;SDS011;61956;52.540;13.382;2023-06-22T02:53:40;12.13;;;3.28;;
73661;SDS011;61956;52.540;13.382;2023-06-22T02:56:12;6.73;;;2.90;;
73661;SDS011;61956;52.540;13.382;2023-06-22T02:58:43;6.85;;;3.03;;
73661;SDS011;61956;52.540;13.382;2023-06-22T03:01:15;6.72;;;3.30;;
73661;SDS011;61956;52.540;13.382;2023-06-22T03:03:49;4.68;;;2.25;;
73661;SDS011;61956;52.540;13.382;2023-06-22T03:06:19;7.20;;;2.90;;
73661;SDS011;61956;52.540;13.382;2023-06-22T03:08:57;5.67;;;2.80;;
73661;SDS011;61956;52.540;13.382;2023-06-22T03:11:30;6.07;;;2.75;;
73661;SDS011;61956;52.540;13.382;2023-06-22T03:14:00;6.05;;;2.33;;
73661;SDS011;61956;52.540;13.382;2023-06-22T03:16:32;5.35;;;2.67;;
73661;SDS011;61956;52.540;13.382;2023-06-22T03:19:02;5.30;;;2.53;;
73661;SDS011;61956;52.540;13.382;2023-06-22T03:21:31;5.63;;;2.07;;
73661;SDS011;61956;52.540;13.382;2023-06-22T03:24:00;4.47;;;2.15;;
73661;SDS011;61956;52.540;13.382;2023-06-22T03:26:30;4.43;;;2.00;;
73661;SDS011;61956;52.540;13.382;2023-06-22T03:29:00;5.18;;;1.77;;
73661;SDS011;61956;52.540;13.382;2023-06-22T03:31:33;6.22;;;3.10;;
73661;SDS011;61956;52.540;13.382;2023-06-22T03:34:02;3.83;;;1.63;;
73661;SDS011;61956;52.540;13.382;2023-06-22T03:36:31;4.75;;;2.38;;
73661;SDS011;61956;52.540;13.382;2023-06-22T03:39:01;3.22;;;1.35;;
73661;SDS011;61956;52.540;13.382;2023-06-22T03:41:30;6.97;;;2.72;;
73661;SDS011;61956;52.540;13.382;2023-06-22T03:44:00;6.47;;;2.33;;
73661;SDS011;61956;52.540;13.382;2023-06-22T03:46:29;5.47;;;2.10;;
73661;SDS011;61956;52.540;13.382;2023-06-22T03:49:01;5.13;;;1.98;;
73661;SDS011;61956;52.540;13.382;2023-06-22T03:51:30;6.10;;;2.42;;
73661;SDS011;61956;52.540;13.382;2023-06-22T03:54:01;7.80;;;2.60;;
73661;SDS011;61956;52.540;13.382;2023-06-22T03:56:30;6.75;;;3.03;;
73661;SDS011;61956;52.540;13.382;2023-06-22T03:58:59;6.13;;;2.70;;
73661;SDS011;61956;52.540;13.382;2023-06-22T04:01:28;5.95;;;2.35;;
73661;SDS011;61956;52.540;13.382;2023-06-22T04:03:57;3.92;;;1.65;;
73661;SDS011;61956;52.540;13.382;2023-06-22T04:06:29;6.70;;;2.03;;
73661;SDS011;61956;52.540;13.382;2023-06-22T04:09:00;4.40;;;2.05;;
73661;SDS011;61956;52.540;13.382;2023-06-22T04:11:29;4.20;;;1.97;;
73661;SDS011;61956;52.540;13.382;2023-06-22T04:13:58;4.53;;;1.67;;
73661;SDS011;61956;52.540;13.382;2023-06-22T04:16:27;5.80;;;2.05;;
73661;SDS011;61956;52.540;13.382;2023-06-22T04:18:56;6.38;;;2.38;;
73661;SDS011;61956;52.540;13.382;2023-06-22T04:21:28;4.88;;;2.25;;
73661;SDS011;61956;52.540;13.382;2023-06-22T04:23:58;5.63;;;2.33;;
73661;SDS011;61956;52.540;13.382;2023-06-22T04:26:27;4.28;;;1.45;;
73661;SDS011;61956;52.540;13.382;2023-06-22T04:28:56;2.88;;;1.52;;
73661;SDS011;61956;52.540;13.382;2023-06-22T04:31:25;3.33;;;1.33;;
73661;SDS011;61956;52.540;13.382;2023-06-22T04:33:57;3.22;;;1.10;;
73661;SDS011;61956;52.540;13.382;2023-06-22T04:36:35;4.83;;;1.57;;
73661;SDS011;61956;52.540;13.382;2023-06-22T04:39:06;4.68;;;1.52;;
73661;SDS011;61956;52.540;13.382;2023-06-22T04:41:38;4.15;;;1.73;;
73661;SDS011;61956;52.540;13.382;2023-06-22T04:44:11;3.15;;;1.10;;
73661;SDS011;61956;52.540;13.382;2023-06-22T04:46:49;2.50;;;1.10;;
73661;SDS011;61956;52.540;13.382;2023-06-22T04:49:25;4.23;;;1.60;;
73661;SDS011;61956;52.540;13.382;2023-06-22T04:52:01;5.15;;;1.80;;
73661;SDS011;61956;52.540;13.382;2023-06-22T04:54:32;2.85;;;1.25;;
73661;SDS011;61956;52.540;13.382;2023-06-22T04:57:02;8.85;;;1.85;;
73661;SDS011;61956;52.540;13.382;2023-06-22T04:59:35;3.72;;;1.38;;
73661;SDS011;61956;52.540;13.382;2023-06-22T05:02:07;4.17;;;1.47;;
73661;SDS011;61956;52.540;13.382;2023-06-22T05:04:37;3.10;;;1.30;;
73661;SDS011;61956;52.540;13.382;2023-06-22T05:07:09;2.55;;;0.75;;
73661;SDS011;61956;52.540;13.382;2023-06-22T05:09:38;1.60;;;0.47;;
73661;SDS011;61956;52.540;13.382;2023-06-22T05:12:07;9.68;;;1.50;;
73661;SDS011;61956;52.540;13.382;2023-06-22T05:14:37;5.43;;;1.57;;
73661;SDS011;61956;52.540;13.382;2023-06-22T05:17:06;2.70;;;0.90;;
73661;SDS011;61956;52.540;13.382;2023-06-22T05:19:38;6.47;;;0.88;;
73661;SDS011;61956;52.540;13.382;2023-06-22T05:22:16;2.17;;;0.88;;
73661;SDS011;61956;52.540;13.382;2023-06-22T05:24:46;5.78;;;1.75;;
73661;SDS011;61956;52.540;13.382;2023-06-22T05:27:15;2.97;;;1.40;;
73661;SDS011;61956;52.540;13.382;2023-06-22T05:29:44;2.03;;;0.88;;
73661;SDS011;61956;52.540;13.382;2023-06-22T05:32:13;2.25;;;0.85;;
73661;SDS011;61956;52.540;13.382;2023-06-22T05:34:44;2.70;;;1.05;;
73661;SDS011;61956;52.540;13.382;2023-06-22T05:37:15;3.67;;;1.05;;
73661;SDS011;61956;52.540;13.382;2023-06-22T05:39:44;6.57;;;0.93;;
73661;SDS011;61956;52.540;13.382;2023-06-22T05:42:14;2.80;;;0.68;;
73661;SDS011;61956;52.540;13.382;2023-06-22T05:44:43;3.28;;;1.38;;
73661;SDS011;61956;52.540;13.382;2023-06-22T05:47:12;2.90;;;0.95;;
73661;SDS011;61956;52.540;13.382;2023-06-22T05:49:41;2.33;;;0.80;;
73661;SDS011;61956;52.540;13.382;2023-06-22T05:52:11;1.40;;;0.50;;
73661;SDS011;61956;52.540;13.382;2023-06-22T05:54:42;3.28;;;1.08;;
73661;SDS011;61956;52.540;13.382;2023-06-22T05:57:12;4.78;;;1.00;;
73661;SDS011;61956;52.540;13.382;2023-06-22T05:59:41;3.05;;;0.80;;
73661;SDS011;61956;52.540;13.382;2023-06-22T06:02:10;3.28;;;1.25;;
73661;SDS011;61956;52.540;13.382;2023-06-22T06:04:39;2.73;;;1.03;;
73661;SDS011;61956;52.540;13.382;2023-06-22T06:07:08;3.25;;;1.25;;
73661;SDS011;61956;52.540;13.382;2023-06-22T06:09:37;4.07;;;1.45;;
73661;SDS011;61956;52.540;13.382;2023-06-22T06:12:09;2.05;;;0.80;;
73661;SDS011;61956;52.540;13.382;2023-06-22T06:14:39;2.95;;;0.75;;
73661;SDS011;61956;52.540;13.382;2023-06-22T06:17:08;2.13;;;0.80;;
73661;SDS011;61956;52.540;13.382;2023-06-22T06:19:37;4.88;;;0.63;;
73661;SDS011;61956;52.540;13.382;2023-06-22T06:22:06;4.03;;;0.82;;
73661;SDS011;61956;52.540;13.382;2023-06-22T06:24:35;2.80;;;0.70;;
73661;SDS011;61956;52.540;13.382;2023-06-22T06:27:04;4.10;;;1.88;;
73661;SDS011;61956;52.540;13.382;2023-06-22T06:29:36;3.17;;;1.00;;
73661;SDS011;61956;52.540;13.382;2023-06-22T06:32:07;2.70;;;0.88;;
73661;SDS011;61956;52.540;13.382;2023-06-22T06:34:37;2.75;;;0.90;;
73661;SDS011;61956;52.540;13.382;2023-06-22T06:37:06;3.50;;;1.05;;
73661;SDS011;61956;52.540;13.382;2023-06-22T06:39:35;3.15;;;1.27;;
73661;SDS011;61956;52.540;13.382;2023-06-22T06:42:05;1.80;;;0.50;;
73661;SDS011;61956;52.540;13.382;2023-06-22T06:44:39;3.75;;;1.13;;
73661;SDS011;61956;52.540;13.382;2023-06-22T06:47:08;1.55;;;0.52;;
73661;SDS011;61956;52.540;13.382;2023-06-22T06:49:37;3.35;;;1.00;;
73661;SDS011;61956;52.540;13.382;2023-06-22T06:52:06;1.60;;;0.63;;
73661;SDS011;61956;52.540;13.382;2023-06-22T06:54:36;1.80;;;0.77;;
73661;SDS011;61956;52.540;13.382;2023-06-22T06:57:07;2.08;;;0.70;;
73661;SDS011;61956;52.540;13.382;2023-06-22T06:59:41;2.28;;;0.65;;
73661;SDS011;61956;52.540;13.382;2023-06-22T07:02:10;2.35;;;0.70;;
73661;SDS011;61956;52.540;13.382;2023-06-22T07:04:40;3.25;;;0.80;;
73661;SDS011;61956;52.540;13.382;2023-06-22T07:07:10;2.67;;;0.93;;
73661;SDS011;61956;52.540;13.382;2023-06-22T07:09:42;1.75;;;0.50;;
73661;SDS011;61956;52.540;13.382;2023-06-22T07:12:11;2.25;;;0.70;;
73661;SDS011;61956;52.540;13.382;2023-06-22T07:14:43;3.50;;;0.95;;
73661;SDS011;61956;52.540;13.382;2023-06-22T07:17:12;2.10;;;0.70;;
73661;SDS011;61956;52.540;13.382;2023-06-22T07:19:41;1.10;;;0.40;;
73661;SDS011;61956;52.540;13.382;2023-06-22T07:22:11;2.65;;;1.10;;
73661;SDS011;61956;52.540;13.382;2023-06-22T07:24:40;4.15;;;0.70;;
73661;SDS011;61956;52.540;13.382;2023-06-22T07:27:09;1.27;;;0.38;;
73661;SDS011;61956;52.540;13.382;2023-06-22T07:29:44;2.00;;;0.50;;
73661;SDS011;61956;52.540;13.382;2023-06-22T07:32:14;2.10;;;0.60;;
73661;SDS011;61956;52.540;13.382;2023-06-22T07:34:43;0.75;;;0.30;;
73661;SDS011;61956;52.540;13.382;2023-06-22T07:37:12;1.38;;;0.52;;
73661;SDS011;61956;52.540;13.382;2023-06-22T07:39:45;2.22;;;0.60;;
73661;SDS011;61956;52.540;13.382;2023-06-22T07:42:16;2.08;;;0.52;;
73661;SDS011;61956;52.540;13.382;2023-06-22T07:44:48;1.83;;;0.47;;
73661;SDS011;61956;52.540;13.382;2023-06-22T07:47:18;1.55;;;0.52;;
73661;SDS011;61956;52.540;13.382;2023-06-22T07:49:50;2.15;;;0.70;;
73661;SDS011;61956;52.540;13.382;2023-06-22T07:52:20;2.28;;;0.60;;
73661;SDS011;61956;52.540;13.382;2023-06-22T07:54:49;3.80;;;0.75;;
73661;SDS011;61956;52.540;13.382;2023-06-22T07:57:18;1.77;;;0.57;;
73661;SDS011;61956;52.540;13.382;2023-06-22T07:59:50;1.67;;;0.60;;
73661;SDS011;61956;52.540;13.382;2023-06-22T08:02:19;1.33;;;0.50;;
73661;SDS011;61956;52.540;13.382;2023-06-22T08:04:51;1.58;;;0.50;;
73661;SDS011;61956;52.540;13.382;2023-06-22T08:07:20;2.78;;;0.77;;
73661;SDS011;61956;52.540;13.382;2023-06-22T08:09:49;2.70;;;0.60;;
73661;SDS011;61956;52.540;13.382;2023-06-22T08:12:18;2.80;;;0.73;;
73661;SDS011;61956;52.540;13.382;2023-06-22T08:14:50;1.55;;;0.50;;
73661;SDS011;61956;52.540;13.382;2023-06-22T08:17:19;2.47;;;0.63;;
73661;SDS011;61956;52.540;13.382;2023-06-22T08:19:49;1.88;;;0.50;;
73661;SDS011;61956;52.540;13.382;2023-06-22T08:22:18;1.67;;;0.50;;
73661;SDS011;61956;52.540;13.382;2023-06-22T08:24:50;2.33;;;0.60;;
73661;SDS011;61956;52.540;13.382;2023-06-22T08:27:19;2.70;;;0.80;;
73661;SDS011;61956;52.540;13.382;2023-06-22T08:29:51;1.98;;;0.77;;
73661;SDS011;61956;52.540;13.382;2023-06-22T08:32:23;1.67;;;0.50;;
73661;SDS011;61956;52.540;13.382;2023-06-22T08:34:52;1.67;;;0.57;;
73661;SDS011;61956;52.540;13.382;2023-06-22T08:37:22;1.30;;;0.50;;
73661;SDS011;61956;52.540;13.382;2023-06-22T08:39:56;1.73;;;0.50;;
73661;SDS011;61956;52.540;13.382;2023-06-22T08:42:25;3.25;;;0.50;;
73661;SDS011;61956;52.540;13.382;2023-06-22T08:44:57;1.10;;;0.43;;
73661;SDS011;61956;52.540;13.382;2023-06-22T08:47:26;1.20;;;0.43;;
73661;SDS011;61956;52.540;13.382;2023-06-22T08:49:56;2.08;;;0.50;;
73661;SDS011;61956;52.540;13.382;2023-06-22T08:52:27;1.95;;;0.57;;
73661;SDS011;61956;52.540;13.382;2023-06-22T08:54:56;3.90;;;0.65;;
73661;SDS011;61956;52.540;13.382;2023-06-22T08:57:26;1.27;;;0.40;;
73661;SDS011;61956;52.540;13.382;2023-06-22T09:00:01;1.63;;;0.50;;
73661;SDS011;61956;52.540;13.382;2023-06-22T09:02:36;1.17;;;0.40;;
73661;SDS011;61956;52.540;13.382;2023-06-22T09:05:06;1.80;;;0.50;;
73661;SDS011;61956;52.540;13.382;2023-06-22T09:07:35;2.80;;;0.63;;
73661;SDS011;61956;52.540;13.382;2023-06-22T09:10:05;4.55;;;0.52;;
73661;SDS011;61956;52.540;13.382;2023-06-22T09:12:35;2.53;;;0.70;;
73661;SDS011;61956;52.540;13.382;2023-06-22T09:15:08;1.35;;;0.43;;
73661;SDS011;61956;52.540;13.382;2023-06-22T09:17:38;2.22;;;0.50;;
73661;SDS011;61956;52.540;13.382;2023-06-22T09:20:09;1.10;;;0.32;;
73661;SDS011;61956;52.540;13.382;2023-06-22T09:22:39;2.30;;;0.55;;
73661;SDS011;61956;52.540;13.382;2023-06-22T09:25:09;2.83;;;0.50;;
73661;SDS011;61956;52.540;13.382;2023-06-22T09:27:38;1.88;;;0.43;;
73661;SDS011;61956;52.540;13.382;2023-06-22T09:30:10;2.83;;;0.70;;
73661;SDS011;61956;52.540;13.382;2023-06-22T09:32:40;2.20;;;0.60;;
73661;SDS011;61956;52.540;13.382;2023-06-22T09:35:09;1.08;;;0.30;;
73661;SDS011;61956;52.540;13.382;2023-06-22T09:37:39;2.83;;;0.67;;
73661;SDS011;61956;52.540;13.382;2023-06-22T09:40:08;2.40;;;0.50;;
73661;SDS011;61956;52.540;13.382;2023-06-22T09:42:41;2.95;;;0.75;;
73661;SDS011;61956;52.540;13.382;2023-06-22T09:45:13;1.98;;;0.65;;
73661;SDS011;61956;52.540;13.382;2023-06-22T09:47:42;1.50;;;0.60;;
73661;SDS011;61956;52.540;13.382;2023-06-22T09:50:11;2.13;;;0.50;;
73661;SDS011;61956;52.540;13.382;2023-06-22T09:52:41;2.00;;;0.52;;
73661;SDS011;61956;52.540;13.382;2023-06-22T09:55:16;2.08;;;0.60;;
73661;SDS011;61956;52.540;13.382;2023-06-22T09:57:45;1.88;;;0.60;;
73661;SDS011;61956;52.540;13.382;2023-06-22T10:00:17;1.95;;;0.40;;
73661;SDS011;61956;52.540;13.382;2023-06-22T10:02:47;1.57;;;0.53;;
73661;SDS011;61956;52.540;13.382;2023-06-22T10:05:16;2.47;;;0.70;;
73661;SDS011;61956;52.540;13.382;2023-06-22T10:07:48;2.15;;;0.60;;
73661;SDS011;61956;52.540;13.382;2023-06-22T10:10:17;2.55;;;0.82;;
73661;SDS011;61956;52.540;13.382;2023-06-22T10:12:47;2.17;;;0.60;;
73661;SDS011;61956;52.540;13.382;2023-06-22T10:15:26;2.23;;;0.50;;
73661;SDS011;61956;52.540;13.382;2023-06-22T10:17:55;2.45;;;0.70;;
73661;SDS011;61956;52.540;13.382;2023-06-22T10:20:24;3.38;;;1.02;;
73661;SDS011;61956;52.540;13.382;2023-06-22T10:22:53;1.65;;;0.60;;
73661;SDS011;61956;52.540;13.382;2023-06-22T10:25:24;2.97;;;0.70;;
73661;SDS011;61956;52.540;13.382;2023-06-22T10:27:53;3.17;;;0.80;;
73661;SDS011;61956;52.540;13.382;2023-06-22T10:30:22;3.90;;;1.10;;
73661;SDS011;61956;52.540;13.382;2023-06-22T10:32:54;2.25;;;0.85;;
73661;SDS011;61956;52.540;13.382;2023-06-22T10:35:23;1.83;;;0.60;;
73661;SDS011;61956;52.540;13.382;2023-06-22T10:37:53;4.30;;;0.95;;
73661;SDS011;61956;52.540;13.382;2023-06-22T10:40:23;2.30;;;0.67;;
73661;SDS011;61956;52.540;13.382;2023-06-22T10:42:52;4.72;;;0.52;;
73661;SDS011;61956;52.540;13.382;2023-06-22T10:45:21;2.72;;;1.02;;
73661;SDS011;61956;52.540;13.382;2023-06-22T10:47:53;2.88;;;0.73;;
73661;SDS011;61956;52.540;13.382;2023-06-22T10:50:22;3.85;;;0.90;;
73661;SDS011;61956;52.540;13.382;2023-06-22T10:52:53;3.20;;;0.80;;
73661;SDS011;61956;52.540;13.382;2023-06-22T10:55:22;3.15;;;0.70;;
73661;SDS011;61956;52.540;13.382;2023-06-22T10:57:51;0.90;;;0.35;;
73661;SDS011;61956;52.540;13.382;2023-06-22T11:00:20;4.47;;;0.77;;
73661;SDS011;61956;52.540;13.382;2023-06-22T11:02:50;1.67;;;0.60;;
73661;SDS011;61956;52.540;13.382;2023-06-22T11:05:23;1.63;;;0.57;;
73661;SDS011;61956;52.540;13.382;2023-06-22T11:07:53;4.10;;;0.98;;
73661;SDS011;61956;52.540;13.382;2023-06-22T11:10:22;3.30;;;0.90;;
73661;SDS011;61956;52.540;13.382;2023-06-22T11:12:52;2.67;;;0.80;;
73661;SDS011;61956;52.540;13.382;2023-06-22T11:15:23;2.00;;;0.52;;
73661;SDS011;61956;52.540;13.382;2023-06-22T11:17:55;2.27;;;0.50;;
73661;SDS011;61956;52.540;13.382;2023-06-22T11:20:24;3.08;;;1.10;;
73661;SDS011;61956;52.540;13.382;2023-06-22T11:22:53;1.83;;;0.70;;
73661;SDS011;61956;52.540;13.382;2023-06-22T11:25:22;2.95;;;0.77;;
73661;SDS011;61956;52.540;13.382;2023-06-22T11:27:51;1.85;;;0.60;;
73661;SDS011;61956;52.540;13.382;2023-06-22T11:30:20;2.53;;;0.70;;
73661;SDS011;61956;52.540;13.382;2023-06-22T11:32:49;3.90;;;0.68;;
73661;SDS011;61956;52.540;13.382;2023-06-22T11:35:21;2.28;;;0.60;;
73661;SDS011;61956;52.540;13.382;2023-06-22T11:37:50;2.22;;;0.82;;
73661;SDS011;61956;52.540;13.382;2023-06-22T11:40:21;2.13;;;0.60;;
73661;SDS011;61956;52.540;13.382;2023-06-22T11:42:50;3.17;;;0.80;;
73661;SDS011;61956;52.540;13.382;2023-06-22T11:45:19;2.35;;;0.60;;
73661;SDS011;61956;52.540;13.382;2023-06-22T11:47:49;5.00;;;0.80;;
73661;SDS011;61956;52.540;13.382;2023-06-22T11:50:21;1.80;;;0.50;;
73661;SDS011;61956;52.540;13.382;2023-06-22T11:52:50;2.00;;;0.80;;
73661;SDS011;61956;52.540;13.382;2023-06-22T11:55:19;3.23;;;0.70;;
73661;SDS011;61956;52.540;13.382;2023-06-22T11:57:53;2.53;;;0.70;;
73661;SDS011;61956;52.540;13.382;2023-06-22T12:00:26;3.15;;;0.73;;
73661;SDS011;61956;52.540;13.382;2023-06-22T12:02:55;3.80;;;0.90;;
73661;SDS011;61956;52.540;13.382;2023-06-22T12:05:27;2.30;;;0.85;;
73661;SDS011;61956;52.540;13.382;2023-06-22T12:07:56;2.97;;;1.03;;
73661;SDS011;61956;52.540;13.382;2023-06-22T12:10:25;5.30;;;0.82;;
73661;SDS011;61956;52.540;13.382;2023-06-22T12:12:56;3.70;;;0.80;;
73661;SDS011;61956;52.540;13.382;2023-06-22T12:15:25;2.88;;;0.73;;
73661;SDS011;61956;52.540;13.382;2023-06-22T12:17:55;1.98;;;0.73;;
73661;SDS011;61956;52.540;13.382;2023-06-22T12:20:27;4.87;;;1.00;;
73661;SDS011;61956;52.540;13.382;2023-06-22T12:22:57;2.33;;;0.60;;
73661;SDS011;61956;52.540;13.382;2023-06-22T12:25:26;2.83;;;0.90;;
73661;SDS011;61956;52.540;13.382;2023-06-22T12:27:55;2.88;;;0.70;;
73661;SDS011;61956;52.540;13.382;2023-06-22T12:30:25;2.13;;;0.63;;
73661;SDS011;61956;52.540;13.382;2023-06-22T12:32:54;4.60;;;0.93;;
73661;SDS011;61956;52.540;13.382;2023-06-22T12:35:23;2.40;;;0.80;;
73661;SDS011;61956;52.540;13.382;2023-06-22T12:37:55;3.15;;;0.95;;
73661;SDS011;61956;52.540;13.382;2023-06-22T12:40:24;2.03;;;0.60;;
73661;SDS011;61956;52.540;13.382;2023-06-22T12:42:53;2.47;;;0.80;;
73661;SDS011;61956;52.540;13.382;2023-06-22T12:45:23;2.47;;;0.73;;
73661;SDS011;61956;52.540;13.382;2023-06-22T12:47:54;1.58;;;0.60;;
73661;SDS011;61956;52.540;13.382;2023-06-22T12:50:23;2.00;;;0.60;;
73661;SDS011;61956;52.540;13.382;2023-06-22T12:52:55;3.13;;;0.73;;
73661;SDS011;61956;52.540;13.382;2023-06-22T12:55:24;2.38;;;0.65;;
73661;SDS011;61956;52.540;13.382;2023-06-22T12:57:53;2.63;;;0.87;;
73661;SDS011;61956;52.540;13.382;2023-06-22T13:00:22;3.17;;;0.93;;
73661;SDS011;61956;52.540;13.382;2023-06-22T13:02:52;2.78;;;0.70;;
73661;SDS011;61956;52.540;13.382;2023-06-22T13:05:21;3.15;;;1.00;;
73661;SDS011;61956;52.540;13.382;2023-06-22T13:07:50;3.13;;;0.90;;
73661;SDS011;61956;52.540;13.382;2023-06-22T13:10:22;4.47;;;1.23;;
73661;SDS011;61956;52.540;13.382;2023-06-22T13:12:51;3.63;;;0.95;;
73661;SDS011;61956;52.540;13.382;2023-06-22T13:15:26;2.67;;;1.00;;
73661;SDS011;61956;52.540;13.382;2023-06-22T13:17:57;2.88;;;1.02;;
73661;SDS011;61956;52.540;13.382;2023-06-22T13:20:26;2.35;;;0.60;;
73661;SDS011;61956;52.540;13.382;2023-06-22T13:22:59;3.30;;;1.00;;
73661;SDS011;61956;52.540;13.382;2023-06-22T13:25:31;2.05;;;0.68;;
73661;SDS011;61956;52.540;13.382;2023-06-22T13:28:00;2.78;;;1.02;;
73661;SDS011;61956;52.540;13.382;2023-06-22T13:30:32;2.70;;;0.93;;
73661;SDS011;61956;52.540;13.382;2023-06-22T13:33:01;2.13;;;0.88;;
73661;SDS011;61956;52.540;13.382;2023-06-22T13:35:30;6.70;;;1.20;;
73661;SDS011;61956;52.540;13.382;2023-06-22T13:38:00;2.08;;;0.60;;
73661;SDS011;61956;52.540;13.382;2023-06-22T13:40:32;3.20;;;1.00;;
73661;SDS011;61956;52.540;13.382;2023-06-22T13:43:01;2.83;;;0.80;;
73661;SDS011;61956;52.540;13.382;2023-06-22T13:45:31;3.00;;;1.10;;
73661;SDS011;61956;52.540;13.382;2023-06-22T13:48:00;2.30;;;0.80;;
73661;SDS011;61956;52.540;13.382;2023-06-22T13:50:30;2.03;;;0.80;;
73661;SDS011;61956;52.540;13.382;2023-06-22T13:52:59;3.03;;;0.80;;
73661;SDS011;61956;52.540;13.382;2023-06-22T13:55:28;3.08;;;0.95;;
73661;SDS011;61956;52.540;13.382;2023-06-22T13:58:00;2.75;;;0.90;;
73661;SDS011;61956;52.540;13.382;2023-06-22T14:00:29;2.97;;;0.90;;
73661;SDS011;61956;52.540;13.382;2023-06-22T14:02:58;3.00;;;1.10;;
73661;SDS011;61956;52.540;13.382;2023-06-22T14:05:27;6.68;;;2.13;;
73661;SDS011;61956;52.540;13.382;2023-06-22T14:07:56;2.35;;;0.60;;
73661;SDS011;61956;52.540;13.382;2023-06-22T14:10:27;3.25;;;1.08;;
73661;SDS011;61956;52.540;13.382;2023-06-22T14:12:58;3.67;;;1.43;;
73661;SDS011;61956;52.540;13.382;2023-06-22T14:15:30;3.95;;;1.30;;
73661;SDS011;61956;52.540;13.382;2023-06-22T14:17:59;5.32;;;1.00;;
73661;SDS011;61956;52.540;13.382;2023-06-22T14:20:28;2.90;;;1.00;;
73661;SDS011;61956;52.540;13.382;2023-06-22T14:22:57;4.78;;;1.33;;
73661;SDS011;61956;52.540;13.382;2023-06-22T14:25:26;1.90;;;0.70;;
73661;SDS011;61956;52.540;13.382;2023-06-22T14:27:56;4.40;;;1.02;;
73661;SDS011;61956;52.540;13.382;2023-06-22T14:30:28;3.05;;;1.00;;
73661;SDS011;61956;52.540;13.382;2023-06-22T14:32:57;2.28;;;0.80;;
73661;SDS011;61956;52.540;13.382;2023-06-22T14:35:26;1.75;;;0.60;;
73661;SDS011;61956;52.540;13.382;2023-06-22T14:37:55;3.27;;;1.13;;
73661;SDS011;61956;52.540;13.382;2023-06-22T14:40:24;3.78;;;1.13;;
73661;SDS011;61956;52.540;13.382;2023-06-22T14:42:53;2.22;;;0.80;;
73661;SDS011;61956;52.540;13.382;2023-06-22T14:45:26;3.03;;;1.10;;
73661;SDS011;61956;52.540;13.382;2023-06-22T14:47:55;3.10;;;0.93;;
73661;SDS011;61956;52.540;13.382;2023-06-22T14:50:24;2.73;;;0.93;;
73661;SDS011;61956;52.540;13.382;2023-06-22T14:52:55;2.75;;;0.77;;